アスタナ の空港の天気 - METARとTAF

アスタナ国際空港 ( UACC / TSE ) - カザフスタン アスタナ
飛行場実況気象(Metar)
観測時間10/20 00:00 QYZT (10/19 18:00 UTC)
風向・風速西南西 3m/s
視程1800m
天気現象雪 雨 もや
全天の8割程度の雲 雲底高度 150m
全天を覆う雲 雲底高度 400m
気温0℃
湿度100%
気圧1015hPa
METARUACC 191800Z 25003MPS 1800 R22/P2000 SNRA BR BKN005 OVC013 M00/M00 Q1015 R22/5/0340 TEMPO 1000 SNRA BR BKN003 RMK QBB150 QFE730/0974
過去の天気等 Google飛行場航空写真 Wunderground天気予報

過去48時間のMETAR

飛行場予報(TAF)
発表時間: 10/19 23:00 QYZT (10/19 17:00 UTC)
予報対象時間: 20日0時 QYZT ~ 21日0時 QYZT
風向・風速西南西 6m/s
視程3000m
天気現象氷雨雪 もや
全天の8割程度の雲 雲底高度 120m
全天を覆う雲 雲底高度 300m
20日0時 QYZT ~ 20日9時 QYZT に一時的に
風向・風速南西 6m/s
視程500m
天気現象しゅう雪雨 氷霧
全天の8割程度の雲 雲底高度 60m
全天の8割程度の積乱雲 雲底高度 300m
20日12時 QYZT から
風向・風速南西 6m/s
視程10km以上
全天の4割程度の雲 雲底高度 180m
全天の8割程度の積乱雲 雲底高度 610m
20日12時 QYZT ~ 20日15時 QYZT に一時的に
風向・風速西南西 10m/s
視程3000m
天気現象しゅう雨
全天の4割程度の雲 雲底高度 90m
全天の8割程度の積乱雲 雲底高度 300m
20日15時 QYZT ~ 20日24時 QYZT に一時的に
風向・風速南西 10m/s
TAF UACC 191700Z 1918/2018 25006MPS 3000 FZRASN BR BKN004 OVC010 TX07/2010Z TNM01/1920Z
TEMPO 1918/2003 22006MPS 0500 SHSNRA FZFG BKN002 BKN010CB
FM200600 23006MPS 9999 SCT006 BKN020CB
TEMPO 2006/2009 24010MPS 3000 SHRA SCT003 BKN010CB
TEMPO 2009/2018 23010MPS